createdAt,value
2018-02-17T00:00:11.883Z,22.57
2018-02-17T00:02:40.852Z,22.67
2018-02-17T00:05:10.196Z,24.07
2018-02-17T00:07:39.373Z,27.03
2018-02-17T00:10:08.572Z,28.33
2018-02-17T00:12:38.581Z,25.47
2018-02-17T00:15:08.547Z,25.97
2018-02-17T00:17:37.820Z,28.67
2018-02-17T00:20:07.079Z,26.23
2018-02-17T00:22:36.340Z,25.10
2018-02-17T00:25:05.563Z,27.33
2018-02-17T00:27:35.558Z,24.07
2018-02-17T00:30:04.786Z,22.57
2018-02-17T00:32:34.011Z,24.77
2018-02-17T00:35:03.264Z,22.80
2018-02-17T00:37:32.511Z,25.23
2018-02-17T00:40:01.755Z,25.03
2018-02-17T00:42:31.183Z,22.73
2018-02-17T00:45:01.166Z,25.13
2018-02-17T00:47:30.772Z,23.80
2018-02-17T00:50:05.430Z,23.23
2018-02-17T00:52:35.520Z,21.80
2018-02-17T00:55:04.773Z,21.17
2018-02-17T00:57:34.000Z,21.63
2018-02-17T01:00:03.296Z,25.90
2018-02-17T01:02:32.511Z,21.50
2018-02-17T01:05:01.790Z,22.43
2018-02-17T01:07:31.782Z,22.60
2018-02-17T01:10:01.036Z,20.77
2018-02-17T01:12:30.215Z,21.23
2018-02-17T01:15:00.224Z,20.63
2018-02-17T01:17:29.455Z,19.30
2018-02-17T01:19:58.697Z,18.90
2018-02-17T01:22:27.958Z,23.03
2018-02-17T01:24:57.195Z,21.17
2018-02-17T01:27:26.466Z,20.37
2018-02-17T01:29:55.732Z,21.47
2018-02-17T01:32:25.742Z,19.73
2018-02-17T01:34:54.996Z,20.23
2018-02-17T01:37:29.820Z,19.53
2018-02-17T01:39:59.116Z,20.60
2018-02-17T01:42:28.309Z,18.43
2018-02-17T01:44:57.543Z,18.53
2018-02-17T01:47:26.838Z,21.03
2018-02-17T01:49:56.110Z,23.00
2018-02-17T01:52:25.346Z,24.03
2018-02-17T01:54:59.276Z,22.83
2018-02-17T01:57:28.497Z,24.77
2018-02-17T01:59:57.756Z,22.67
2018-02-17T02:02:27.046Z,20.03
2018-02-17T02:04:56.297Z,20.93
2018-02-17T02:07:25.540Z,19.77
2018-02-17T02:09:58.380Z,19.50
2018-02-17T02:12:27.611Z,21.50
2018-02-17T02:14:56.824Z,20.87
2018-02-17T02:17:25.971Z,19.17
2018-02-17T02:19:55.260Z,19.47
2018-02-17T02:22:24.622Z,19.47
2018-02-17T02:24:53.967Z,18.07
2018-02-17T02:27:23.308Z,20.13
2018-02-17T02:29:52.795Z,19.80
2018-02-17T02:32:22.190Z,18.83
2018-02-17T02:34:52.332Z,19.53
2018-02-17T02:37:21.748Z,20.67
2018-02-17T02:39:51.057Z,20.87
2018-02-17T02:42:20.369Z,20.57
2018-02-17T02:44:49.678Z,20.43
2018-02-17T02:47:18.991Z,20.07
2018-02-17T02:49:49.389Z,20.17
2018-02-17T02:52:18.688Z,18.67
2018-02-17T02:54:47.988Z,18.40
2018-02-17T02:57:17.277Z,20.17
2018-02-17T02:59:46.603Z,18.27
2018-02-17T03:02:15.873Z,18.93
2018-02-17T03:04:45.158Z,21.57
2018-02-17T03:07:14.422Z,20.03
2018-02-17T03:09:44.477Z,18.13
2018-02-17T03:12:13.738Z,20.03
2018-02-17T03:14:43.054Z,17.30
2018-02-17T03:17:13.162Z,17.20
2018-02-17T03:19:42.437Z,17.60
2018-02-17T03:22:11.787Z,17.87
2018-02-17T03:24:41.098Z,20.13
2018-02-17T03:27:10.375Z,18.90
2018-02-17T03:29:39.649Z,16.90
2018-02-17T03:32:08.970Z,16.63
2018-02-17T03:34:38.246Z,18.23
2018-02-17T03:37:07.569Z,18.47
2018-02-17T03:39:36.928Z,17.17
2018-02-17T03:42:07.032Z,21.03
2018-02-17T03:44:36.327Z,19.43
2018-02-17T03:47:05.577Z,17.87
2018-02-17T03:49:35.672Z,14.83
2018-02-17T03:52:04.941Z,18.73
2018-02-17T03:54:35.259Z,18.80
2018-02-17T03:57:05.290Z,14.90
2018-02-17T03:59:35.315Z,16.53
2018-02-17T04:02:04.628Z,14.27
2018-02-17T04:04:33.977Z,15.60
2018-02-17T04:07:03.308Z,16.37
2018-02-17T04:09:32.549Z,15.57
2018-02-17T04:12:01.806Z,16.87
2018-02-17T04:14:31.108Z,16.00
2018-02-17T04:17:00.414Z,18.03
2018-02-17T04:19:29.767Z,17.90
2018-02-17T04:21:59.097Z,16.53
2018-02-17T04:24:28.339Z,17.73
2018-02-17T04:26:57.627Z,16.90
2018-02-17T04:29:26.901Z,18.40
2018-02-17T04:31:56.306Z,19.03
2018-02-17T04:34:26.382Z,17.87
2018-02-17T04:36:55.856Z,20.13
2018-02-17T04:39:25.256Z,17.63
2018-02-17T04:41:54.578Z,17.27
2018-02-17T04:47:27.053Z,16.00
2018-02-17T04:50:01.869Z,18.40
2018-02-17T04:52:36.838Z,20.60
2018-02-17T04:55:23.049Z,19.50
2018-02-17T04:57:54.476Z,20.33
2018-02-17T05:00:44.525Z,21.13
2018-02-17T05:06:36.720Z,18.03
2018-02-17T05:09:06.062Z,20.37
2018-02-17T05:11:36.019Z,18.90
2018-02-17T05:14:20.222Z,18.40
2018-02-17T05:16:55.950Z,18.83
2018-02-17T05:19:31.794Z,20.07
2018-02-17T05:25:21.566Z,18.00
2018-02-17T05:27:53.458Z,17.70
2018-02-17T05:30:23.924Z,16.73
2018-02-17T05:33:07.097Z,18.37
2018-02-17T05:35:36.470Z,18.97
2018-02-17T05:38:05.739Z,19.07
2018-02-17T05:40:45.904Z,18.23
2018-02-17T05:43:15.232Z,18.20
2018-02-17T05:46:00.182Z,18.40
2018-02-17T05:48:33.067Z,15.63
2018-02-17T05:51:07.543Z,18.47
2018-02-17T05:53:36.791Z,18.70
2018-02-17T05:56:06.073Z,17.43
2018-02-17T05:58:37.199Z,16.67
2018-02-17T06:01:07.342Z,16.13
2018-02-17T06:03:36.687Z,17.40
2018-02-17T06:06:06.777Z,19.40
2018-02-17T06:08:36.120Z,14.63
2018-02-17T06:11:05.479Z,16.90
2018-02-17T06:13:34.740Z,16.70
2018-02-17T06:16:05.008Z,14.50
2018-02-17T06:18:35.046Z,15.77
2018-02-17T06:21:04.396Z,15.73
2018-02-17T06:23:34.479Z,15.43
2018-02-17T06:26:03.791Z,15.97
2018-02-17T06:28:33.119Z,15.90
2018-02-17T06:31:03.171Z,15.40
2018-02-17T06:33:33.621Z,14.03
2018-02-17T06:36:02.902Z,13.60
2018-02-17T06:38:32.960Z,14.53
2018-02-17T06:41:02.248Z,15.47
2018-02-17T06:43:31.506Z,13.50
2018-02-17T06:46:00.943Z,14.53
2018-02-17T06:48:30.244Z,13.97
2018-02-17T06:50:59.515Z,14.40
2018-02-17T06:53:28.801Z,14.33
2018-02-17T06:55:58.143Z,13.10
2018-02-17T06:58:27.446Z,13.43
2018-02-17T07:00:56.593Z,14.20
2018-02-17T07:03:39.554Z,12.23
2018-02-17T07:06:08.863Z,14.07
2018-02-17T07:08:38.115Z,14.40
2018-02-17T07:11:07.292Z,13.20
2018-02-17T07:13:36.546Z,13.50
2018-02-17T07:16:05.808Z,12.20
2018-02-17T07:18:35.025Z,14.40
2018-02-17T07:21:04.321Z,15.63
2018-02-17T07:23:33.593Z,15.90
2018-02-17T07:26:02.821Z,14.13
2018-02-17T07:28:32.050Z,14.43
2018-02-17T07:31:01.286Z,14.33
2018-02-17T07:33:30.529Z,14.30
2018-02-17T07:35:59.766Z,14.47
2018-02-17T07:38:28.976Z,14.77
2018-02-17T07:40:58.178Z,15.03
2018-02-17T07:43:28.165Z,13.40
2018-02-17T07:45:57.382Z,15.10
2018-02-17T07:48:26.638Z,14.53
2018-02-17T07:50:55.906Z,13.97
2018-02-17T07:53:25.106Z,13.33
2018-02-17T07:55:54.363Z,14.87
2018-02-17T07:58:24.443Z,12.73
2018-02-17T08:00:53.829Z,16.03
2018-02-17T08:03:23.104Z,15.63
2018-02-17T08:05:53.092Z,14.17
2018-02-17T08:08:22.374Z,14.90
2018-02-17T08:10:51.648Z,14.63
2018-02-17T08:13:20.894Z,15.20
2018-02-17T08:15:50.113Z,14.33
2018-02-17T08:18:19.358Z,13.40
2018-02-17T08:20:48.532Z,14.60
2018-02-17T08:23:17.775Z,12.97
2018-02-17T08:25:46.983Z,11.90
2018-02-17T08:28:16.250Z,12.37
2018-02-17T08:30:46.331Z,13.13
2018-02-17T08:33:35.072Z,12.43
2018-02-17T08:36:14.755Z,13.17
2018-02-17T08:38:46.063Z,15.07
2018-02-17T08:41:15.268Z,14.50
2018-02-17T08:43:48.734Z,14.67
2018-02-17T08:46:18.012Z,14.87
2018-02-17T08:48:47.230Z,15.77
2018-02-17T08:51:16.503Z,13.57
2018-02-17T08:53:50.088Z,14.67
2018-02-17T08:56:25.067Z,12.43
2018-02-17T08:58:58.778Z,12.93
2018-02-17T09:01:27.996Z,12.93
2018-02-17T09:03:57.267Z,12.77
2018-02-17T09:06:26.533Z,13.17
2018-02-17T09:08:55.781Z,12.47
2018-02-17T09:11:24.991Z,11.77
2018-02-17T09:14:01.674Z,11.83
2018-02-17T09:16:30.894Z,13.10
2018-02-17T09:19:02.097Z,13.00
2018-02-17T09:21:32.130Z,12.90
2018-02-17T09:24:01.354Z,12.33
2018-02-17T09:26:30.669Z,12.53
2018-02-17T09:28:59.873Z,12.43
2018-02-17T09:31:29.059Z,11.37
2018-02-17T09:33:59.077Z,12.67
2018-02-17T09:36:28.310Z,11.20
2018-02-17T09:38:57.534Z,11.67
2018-02-17T09:41:26.766Z,10.87
2018-02-17T09:43:55.996Z,12.47
2018-02-17T09:46:25.254Z,9.63
2018-02-17T09:48:54.482Z,9.90
2018-02-17T09:51:34.904Z,9.60
2018-02-17T09:54:04.114Z,11.07
2018-02-17T09:56:33.351Z,10.93
2018-02-17T09:59:02.605Z,11.03
2018-02-17T10:01:32.616Z,11.03
2018-02-17T10:04:02.621Z,11.73
2018-02-17T10:06:31.908Z,10.87
2018-02-17T10:09:01.160Z,11.47
2018-02-17T10:11:33.503Z,11.67
2018-02-17T10:14:15.417Z,11.23
2018-02-17T10:16:44.623Z,12.50
2018-02-17T10:19:13.830Z,10.37
2018-02-17T10:21:50.392Z,11.17
2018-02-17T10:24:20.384Z,9.77
2018-02-17T10:26:49.568Z,10.00
2018-02-17T10:29:21.820Z,10.10
2018-02-17T10:31:51.102Z,9.17
2018-02-17T10:34:46.129Z,9.90
2018-02-17T10:37:15.348Z,9.77
2018-02-17T10:39:44.557Z,10.37
2018-02-17T10:42:13.732Z,9.83
2018-02-17T10:44:44.999Z,9.20
2018-02-17T10:47:14.176Z,10.60
2018-02-17T10:52:22.862Z,10.93
2018-02-17T10:54:52.036Z,11.37
2018-02-17T10:57:21.278Z,10.90
2018-02-17T10:59:50.470Z,9.20
2018-02-17T11:02:23.724Z,10.37
2018-02-17T11:04:52.944Z,10.97
2018-02-17T11:07:22.014Z,10.90
2018-02-17T11:09:51.231Z,9.97
2018-02-17T11:12:20.524Z,11.60
2018-02-17T11:14:49.754Z,11.33
2018-02-17T11:17:19.009Z,10.70
2018-02-17T11:19:48.991Z,10.53
2018-02-17T11:22:18.196Z,12.03
2018-02-17T11:24:47.518Z,10.03
2018-02-17T11:27:17.242Z,10.93
2018-02-17T11:29:46.981Z,11.60
2018-02-17T11:32:16.266Z,12.20
2018-02-17T11:34:45.466Z,10.57
2018-02-17T11:37:14.703Z,9.20
2018-02-17T11:39:43.913Z,11.70
2018-02-17T11:42:13.187Z,10.60
2018-02-17T11:47:54.445Z,11.00
2018-02-17T11:50:23.691Z,10.80
2018-02-17T11:52:52.891Z,10.37
2018-02-17T11:55:22.168Z,11.53
2018-02-17T11:57:56.947Z,11.67
2018-02-17T12:00:26.168Z,10.27
2018-02-17T12:02:55.398Z,10.70
2018-02-17T12:05:33.204Z,11.47
2018-02-17T12:08:03.374Z,12.67
2018-02-17T12:10:32.626Z,10.90
2018-02-17T12:13:01.830Z,12.37
2018-02-17T12:15:36.064Z,12.77
2018-02-17T12:18:05.797Z,11.33
2018-02-17T12:20:35.858Z,11.57
2018-02-17T12:23:05.110Z,13.10
2018-02-17T12:25:34.350Z,11.83
2018-02-17T12:28:03.578Z,11.50
2018-02-17T12:30:33.569Z,10.97
2018-02-17T12:33:02.830Z,12.83
2018-02-17T12:35:32.050Z,12.63
2018-02-17T12:38:03.249Z,13.00
2018-02-17T12:40:32.524Z,11.80
2018-02-17T12:43:02.480Z,11.43
2018-02-17T12:45:31.711Z,12.23
2018-02-17T12:48:00.916Z,10.97
2018-02-17T12:50:30.192Z,13.13
2018-02-17T12:52:59.397Z,11.50
2018-02-17T12:55:28.649Z,10.87
2018-02-17T12:57:57.923Z,11.27
2018-02-17T13:00:27.892Z,10.67
2018-02-17T13:02:57.109Z,10.67
2018-02-17T13:05:26.368Z,11.90
2018-02-17T13:07:56.303Z,9.87
2018-02-17T13:10:25.538Z,12.03
2018-02-17T13:13:02.002Z,10.70
2018-02-17T13:15:31.253Z,11.80
2018-02-17T13:18:00.485Z,11.70
2018-02-17T13:20:29.716Z,11.07
2018-02-17T13:22:58.928Z,11.23
2018-02-17T13:25:28.121Z,12.43
2018-02-17T13:27:57.263Z,11.97
2018-02-17T13:30:26.463Z,10.40
2018-02-17T13:32:55.692Z,11.17
2018-02-17T13:35:24.941Z,11.70
2018-02-17T13:37:54.178Z,11.50
2018-02-17T13:40:30.044Z,11.97
2018-02-17T13:42:59.271Z,11.80
2018-02-17T13:45:30.126Z,11.37
2018-02-17T13:47:59.332Z,11.70
2018-02-17T13:50:28.573Z,10.67
2018-02-17T13:52:57.768Z,13.03
2018-02-17T13:55:27.025Z,11.87
2018-02-17T13:57:56.252Z,11.90
2018-02-17T14:00:25.473Z,10.40
2018-02-17T14:02:54.711Z,12.47
2018-02-17T14:05:24.687Z,12.20
2018-02-17T14:07:53.887Z,12.63
2018-02-17T14:10:23.130Z,12.23
2018-02-17T14:12:52.378Z,11.87
2018-02-17T14:15:21.613Z,12.53
2018-02-17T14:17:52.812Z,12.10
2018-02-17T14:20:22.032Z,11.80
2018-02-17T14:22:52.047Z,12.77
2018-02-17T14:25:21.295Z,11.27
2018-02-17T14:27:50.503Z,12.10
2018-02-17T14:30:19.724Z,11.50
2018-02-17T14:32:49.752Z,11.37
2018-02-17T14:35:18.959Z,10.80
2018-02-17T14:37:48.178Z,11.57
2018-02-17T14:40:17.364Z,18.60
2018-02-17T14:42:46.632Z,15.87
2018-02-17T14:45:15.805Z,14.33
2018-02-17T14:47:45.020Z,11.90
2018-02-17T14:50:14.256Z,12.50
2018-02-17T14:52:43.510Z,11.77
2018-02-17T14:55:13.494Z,11.03
2018-02-17T14:57:42.790Z,13.73
2018-02-17T15:00:12.776Z,11.83
2018-02-17T15:02:41.966Z,12.97
2018-02-17T15:05:11.239Z,13.73
2018-02-17T15:07:40.495Z,13.47
2018-02-17T15:10:09.700Z,12.80
2018-02-17T15:12:38.948Z,12.63
2018-02-17T15:15:08.945Z,13.17
2018-02-17T15:17:38.199Z,13.50
2018-02-17T15:20:07.434Z,12.23
2018-02-17T15:22:36.678Z,13.50
2018-02-17T15:25:05.912Z,13.53
2018-02-17T15:27:35.171Z,13.30
2018-02-17T15:30:04.423Z,13.97
2018-02-17T15:32:33.676Z,14.93
2018-02-17T15:35:03.655Z,12.83
2018-02-17T15:37:32.871Z,15.30
2018-02-17T15:40:02.134Z,14.13
2018-02-17T15:42:31.476Z,14.80
2018-02-17T15:45:00.679Z,13.63
2018-02-17T15:47:29.938Z,13.70
2018-02-17T15:49:59.167Z,12.97
2018-02-17T15:55:26.339Z,14.43
2018-02-17T15:57:55.543Z,12.77
2018-02-17T16:00:24.770Z,14.17
2018-02-17T16:02:54.004Z,13.03
2018-02-17T16:05:23.279Z,14.50
2018-02-17T16:07:52.505Z,14.90
2018-02-17T16:10:21.791Z,14.47
2018-02-17T16:12:50.983Z,14.73
2018-02-17T16:15:20.227Z,14.93
2018-02-17T16:18:02.671Z,14.97
2018-02-17T16:20:32.695Z,13.87
2018-02-17T16:23:01.937Z,15.30
2018-02-17T16:25:31.881Z,15.37
2018-02-17T16:28:01.139Z,15.73
2018-02-17T16:30:31.164Z,16.27
2018-02-17T16:33:00.396Z,16.37
2018-02-17T16:35:30.377Z,16.63
2018-02-17T16:37:59.597Z,15.60
2018-02-17T16:40:33.407Z,16.03
2018-02-17T16:43:02.630Z,16.00
2018-02-17T16:45:32.883Z,18.27
2018-02-17T16:48:03.120Z,17.13
2018-02-17T16:50:33.146Z,15.70
2018-02-17T16:53:03.198Z,17.67
2018-02-17T16:55:33.125Z,17.33
2018-02-17T16:58:03.167Z,16.27
2018-02-17T17:00:32.479Z,16.63
2018-02-17T17:03:01.753Z,17.67
2018-02-17T17:05:30.970Z,18.53
2018-02-17T17:11:02.555Z,17.17
2018-02-17T17:13:31.840Z,15.93
2018-02-17T17:16:01.066Z,15.07
2018-02-17T17:18:30.247Z,15.20
2018-02-17T17:20:59.485Z,14.33
2018-02-17T17:23:28.710Z,15.17
2018-02-17T17:25:58.023Z,17.37
2018-02-17T17:28:27.337Z,16.77
2018-02-17T17:30:56.611Z,16.17
2018-02-17T17:33:25.878Z,17.80
2018-02-17T17:38:53.219Z,16.17
2018-02-17T17:41:22.497Z,17.50
2018-02-17T17:43:51.895Z,15.90
2018-02-17T17:46:21.163Z,18.13
2018-02-17T17:48:50.395Z,16.97
2018-02-17T17:51:19.609Z,17.97
2018-02-17T17:56:50.308Z,18.30
2018-02-17T17:59:19.688Z,18.57
2018-02-17T18:01:48.881Z,19.00
2018-02-17T18:04:18.113Z,20.23
2018-02-17T18:06:47.395Z,18.67
2018-02-17T18:09:16.769Z,17.73
2018-02-17T18:11:46.152Z,19.10
2018-02-17T18:14:15.512Z,18.93
2018-02-17T18:16:44.736Z,17.37
2018-02-17T18:19:14.073Z,17.60
2018-02-17T18:21:43.351Z,18.47
2018-02-17T18:24:12.542Z,17.07
2018-02-17T18:26:41.777Z,16.53
2018-02-17T18:29:11.038Z,17.47
2018-02-17T18:31:40.998Z,18.23
2018-02-17T18:34:10.268Z,17.27
2018-02-17T18:36:39.500Z,16.80
2018-02-17T18:39:08.722Z,16.03
2018-02-17T18:41:37.965Z,16.97
2018-02-17T18:44:12.450Z,17.77
2018-02-17T18:46:45.570Z,17.30
2018-02-17T18:49:39.528Z,16.80
2018-02-17T18:52:08.797Z,16.93
2018-02-17T18:54:44.980Z,17.70
2018-02-17T18:57:16.264Z,14.77
2018-02-17T18:59:54.208Z,16.57
2018-02-17T19:02:38.841Z,16.17
2018-02-17T19:05:08.103Z,16.33
2018-02-17T19:08:57.726Z,16.83
2018-02-17T19:11:26.977Z,16.60
2018-02-17T19:13:57.052Z,15.07
2018-02-17T19:16:26.383Z,16.60
2018-02-17T19:18:55.709Z,17.23
2018-02-17T19:21:25.744Z,15.80
2018-02-17T19:23:55.053Z,17.13
2018-02-17T19:26:24.351Z,17.27
2018-02-17T19:28:53.729Z,16.00
2018-02-17T19:31:23.005Z,15.67
2018-02-17T19:33:53.340Z,17.17
2018-02-17T19:36:22.681Z,15.47
2018-02-17T19:38:52.078Z,15.67
2018-02-17T19:41:21.697Z,15.00
2018-02-17T19:43:51.151Z,16.57
2018-02-17T19:46:20.570Z,16.00
2018-02-17T19:48:49.915Z,16.37
2018-02-17T19:51:19.382Z,15.87
2018-02-17T19:53:48.650Z,15.07
2018-02-17T19:56:18.030Z,16.33
2018-02-17T19:58:47.397Z,16.57
2018-02-17T20:01:16.724Z,15.23
2018-02-17T20:03:46.012Z,17.13
2018-02-17T20:06:15.285Z,15.83
2018-02-17T20:08:44.559Z,14.37
2018-02-17T20:11:13.879Z,14.17
2018-02-17T20:13:43.196Z,16.03
2018-02-17T20:16:12.442Z,14.83
2018-02-17T20:18:41.749Z,15.53
2018-02-17T20:21:11.059Z,14.80
2018-02-17T20:23:40.447Z,16.80
2018-02-17T20:26:09.697Z,13.90
2018-02-17T20:28:38.981Z,14.83
2018-02-17T20:31:08.263Z,15.27
2018-02-17T20:33:37.542Z,14.37
2018-02-17T20:36:06.837Z,14.07
2018-02-17T20:38:36.127Z,15.67
2018-02-17T20:41:05.354Z,13.43
2018-02-17T20:43:34.583Z,14.37
2018-02-17T20:46:03.862Z,13.10
2018-02-17T20:48:33.121Z,14.17
2018-02-17T20:51:02.474Z,15.23
2018-02-17T20:53:32.492Z,14.83
2018-02-17T20:56:01.758Z,13.33
2018-02-17T20:58:31.021Z,13.27
2018-02-17T21:01:00.358Z,13.73
2018-02-17T21:03:29.627Z,14.47
2018-02-17T21:05:58.871Z,13.17
2018-02-17T21:08:28.203Z,12.87
2018-02-17T21:10:57.587Z,13.60
2018-02-17T21:13:26.942Z,13.97
2018-02-17T21:15:56.203Z,12.50
2018-02-17T21:18:25.468Z,12.37
2018-02-17T21:20:54.919Z,11.20
2018-02-17T21:23:24.211Z,11.57
2018-02-17T21:25:53.537Z,11.57
2018-02-17T21:28:23.522Z,10.63
2018-02-17T21:30:52.852Z,12.03
2018-02-17T21:33:22.198Z,11.83
2018-02-17T21:35:52.308Z,12.53
2018-02-17T21:38:21.699Z,12.43
2018-02-17T21:40:51.055Z,12.17
2018-02-17T21:43:20.365Z,13.17
2018-02-17T21:45:49.664Z,13.50
2018-02-17T21:48:19.054Z,12.37
2018-02-17T21:50:48.472Z,13.83
2018-02-17T21:53:19.849Z,13.63
2018-02-17T21:55:49.346Z,12.03
2018-02-17T21:58:18.684Z,12.83
2018-02-17T22:00:48.898Z,12.60
2018-02-17T22:03:18.317Z,12.20
2018-02-17T22:05:47.649Z,12.67
2018-02-17T22:08:16.975Z,11.93
2018-02-17T22:10:46.329Z,12.47
2018-02-17T22:13:15.628Z,12.37
2018-02-17T22:15:45.690Z,12.70
2018-02-17T22:18:15.019Z,12.67
2018-02-17T22:20:44.321Z,12.03
2018-02-17T22:23:13.593Z,12.40
2018-02-17T22:25:42.914Z,12.97
2018-02-17T22:28:12.151Z,12.63
2018-02-17T22:30:42.159Z,12.97
2018-02-17T22:33:11.467Z,14.37
2018-02-17T22:35:40.689Z,12.23
2018-02-17T22:38:10.776Z,13.53
2018-02-17T22:40:40.045Z,12.80
2018-02-17T22:43:09.355Z,12.63
2018-02-17T22:45:39.449Z,13.30
2018-02-17T22:48:08.710Z,14.67
2018-02-17T22:50:38.026Z,14.30
2018-02-17T22:53:07.327Z,14.33
2018-02-17T22:55:36.534Z,14.47
2018-02-17T22:58:05.803Z,13.87
2018-02-17T23:00:35.083Z,13.93
2018-02-17T23:03:05.084Z,14.63
2018-02-17T23:05:34.417Z,15.00
2018-02-17T23:08:04.453Z,14.93
2018-02-17T23:10:33.741Z,14.57
2018-02-17T23:13:03.026Z,15.10
2018-02-17T23:15:32.305Z,15.47
2018-02-17T23:18:01.528Z,15.50
2018-02-17T23:20:30.799Z,16.87
2018-02-17T23:23:00.071Z,17.63
2018-02-17T23:25:29.366Z,16.30
2018-02-17T23:27:58.624Z,16.83
2018-02-17T23:30:27.984Z,16.73
2018-02-17T23:32:57.362Z,16.27
2018-02-17T23:35:27.789Z,16.73
2018-02-17T23:37:57.927Z,14.77
2018-02-17T23:40:28.008Z,16.13
2018-02-17T23:42:57.282Z,15.50
2018-02-17T23:45:27.397Z,16.47
2018-02-17T23:47:56.686Z,16.27
2018-02-17T23:50:26.047Z,19.60
2018-02-17T23:52:55.354Z,17.73
2018-02-17T23:55:24.706Z,19.93
2018-02-17T23:57:54.044Z,18.50
